Date,TemperatureHighF,TemperatureAvgF,TemperatureLowF,DewpointHighF,DewpointAvgF,DewpointLowF,HumidityHigh,HumidityAvg,HumidityLow,PressureMaxIn,PressureMinIn,WindSpeedMaxMPH,WindSpeedAvgMPH,GustSpeedMaxMPH,PrecipitationSumIn
2013-1-1,77.0,67.5,58.0,64.0,61.2,56.0,95,81,61,30.20,30.03,5,1,12,0.00
2013-1-2,77.0,68.1,62.0,70.0,65.1,61.0,97,90,77,30.08,29.99,4,1,9,0.00
2013-1-3,78.0,69.0,62.0,71.0,66.1,61.0,99,91,75,30.11,30.02,4,1,12,0.00
2013-1-4,74.0,68.5,64.0,69.0,66.2,62.0,97,92,83,30.23,30.09,7,3,12,0.12
2013-1-5,78.0,68.6,62.0,68.0,64.4,61.0,97,87,69,30.24,30.14,7,3,15,0.01
2013-1-6,80.0,70.9,66.0,72.0,68.1,65.0,98,91,75,30.18,30.05,8,2,12,0.00
2013-1-7,74.0,70.0,67.0,69.0,67.5,64.0,97,92,82,30.15,30.06,7,3,14,0.07
2013-1-8,83.0,72.4,65.0,72.0,67.8,64.0,98,87,62,30.18,30.08,6,2,10,0.01
2013-1-9,84.0,75.2,70.0,72.0,70.0,68.0,97,85,62,30.24,30.14,7,3,14,0.01
2013-1-10,83.0,74.8,70.0,70.0,67.4,64.0,93,79,57,30.26,30.16,10,4,17,0.00
2013-1-11,82.0,72.7,68.0,69.0,66.1,62.0,94,81,53,30.24,30.11,5,2,12,0.00
2013-1-12,82.0,73.5,68.0,71.0,68.2,66.0,95,84,66,30.16,30.06,6,2,12,0.00
2013-1-13,81.0,73.1,67.0,69.0,67.0,64.0,93,82,66,30.12,30.04,7,3,17,0.00
2013-1-14,81.0,72.1,66.0,67.0,64.6,63.0,92,78,58,30.16,30.10,6,2,12,0.00
2013-1-15,82.0,72.1,65.0,69.0,65.7,63.0,96,81,55,30.12,30.04,5,2,10,0.00
2013-1-16,81.0,72.4,65.0,69.0,66.9,64.0,97,84,59,30.09,30.00,6,1,12,0.00
2013-1-17,78.0,68.9,62.0,72.0,64.3,52.0,98,85,68,30.13,30.01,18,6,29,0.00
2013-1-18,66.0,60.1,50.0,58.0,51.2,41.0,91,73,62,30.27,30.11,15,6,25,0.00
2013-1-19,74.0,66.0,60.0,66.0,61.8,58.0,96,87,72,30.23,30.09,6,4,14,0.00
2013-1-20,77.0,68.2,65.0,69.0,65.1,63.0,96,90,70,30.15,30.02,9,3,12,0.00
2013-1-21,72.0,66.8,63.0,66.0,63.5,57.0,95,89,81,30.09,30.00,12,4,16,0.00
2013-1-22,70.0,63.2,59.0,57.0,51.4,42.0,85,67,46,30.25,30.04,9,5,17,0.00
2013-1-23,73.0,61.7,54.0,51.0,43.9,39.0,66,53,34,30.32,30.22,9,4,16,0.00
2013-1-24,72.0,62.2,54.0,57.0,49.0,40.0,85,64,31,30.31,30.21,10,3,14,0.00
2013-1-25,75.0,62.7,54.0,58.0,53.2,50.0,90,73,43,30.29,30.18,6,2,10,0.00
2013-1-26,74.0,64.3,56.0,60.0,53.7,49.0,91,70,43,30.26,30.16,10,4,15,0.00
2013-1-27,79.0,67.3,57.0,61.0,57.1,54.0,91,72,44,30.27,30.18,6,3,14,0.00
2013-1-28,81.0,71.0,65.0,66.0,63.1,60.0,91,77,57,30.29,30.18,6,3,14,0.00
2013-1-29,80.0,71.7,66.0,69.0,66.5,62.0,94,84,67,30.22,30.09,6,3,15,0.00
2013-1-30,78.0,72.1,68.0,69.0,67.5,65.0,94,86,71,30.09,29.95,7,4,21,0.00
2013-1-31,71.0,61.6,52.0,69.0,52.0,39.0,95,72,57,30.20,29.96,14,6,23,0.12
2013-2-1,70.0,57.5,47.0,44.0,39.4,36.0,77,53,33,30.32,30.20,10,4,20,0.01
2013-2-2,75.0,60.8,50.0,58.0,46.9,37.0,86,62,39,30.27,30.12,7,4,14,0.00
2013-2-3,71.0,60.6,52.0,57.0,48.1,35.0,88,67,27,30.21,30.09,10,4,17,0.00
2013-2-4,70.0,59.5,51.0,55.0,46.8,26.0,95,68,19,30.15,30.03,6,2,12,0.00
2013-2-5,77.0,64.9,54.0,62.0,55.5,47.0,93,73,51,30.08,29.99,5,2,10,0.00
2013-2-6,79.0,68.3,59.0,65.0,61.6,57.0,93,80,61,30.10,30.01,5,1,8,0.00
2013-2-7,79.0,70.8,65.0,67.0,65.6,63.0,95,84,65,30.06,29.93,6,2,18,0.00
2013-2-8,75.0,70.1,62.0,69.0,65.6,60.0,96,86,64,30.06,29.90,10,6,18,0.03
2013-2-9,78.0,67.4,57.0,65.0,59.9,56.0,97,79,53,30.15,30.04,7,4,17,0.00
2013-2-10,81.0,71.6,66.0,66.0,63.0,59.0,84,75,57,30.22,30.12,9,4,15,0.00
2013-2-11,80.0,72.0,67.0,68.0,66.2,64.0,92,82,67,30.19,30.08,9,4,17,0.00
2013-2-12,80.0,72.8,68.0,72.0,69.0,66.0,96,88,74,30.10,29.96,6,2,20,0.01
2013-2-13,81.0,74.0,71.0,74.0,71.3,65.0,98,92,78,29.99,29.90,7,4,17,0.01
2013-2-14,73.0,64.1,61.0,71.0,61.3,58.0,97,91,78,30.02,29.90,10,4,21,1.78
2013-2-15,68.0,63.7,61.0,63.0,60.6,57.0,96,90,81,30.05,29.94,5,2,10,0.09
2013-2-16,69.0,62.3,58.0,61.0,53.8,45.0,93,74,56,30.10,29.92,16,8,30,0.01
2013-2-17,60.0,51.8,44.0,45.0,31.8,22.0,59,47,34,30.32,30.09,16,6,28,0.01
2013-2-18,71.0,57.0,45.0,52.0,42.2,30.0,73,58,45,30.32,30.20,9,4,15,0.00
2013-2-19,77.0,65.5,56.0,65.0,58.7,51.0,95,79,62,30.20,30.09,5,2,10,0.00
2013-2-20,80.0,67.5,59.0,66.0,61.7,58.0,98,83,51,30.10,29.99,7,2,12,0.00
2013-2-21,81.0,70.7,63.0,68.0,65.0,61.0,97,83,59,30.08,29.98,5,2,12,0.00
2013-2-22,82.0,72.7,67.0,72.0,68.4,65.0,96,87,67,30.07,29.99,7,3,16,0.00
2013-2-23,81.0,73.9,69.0,74.0,70.8,68.0,97,90,76,30.03,29.91,6,3,16,0.01
2013-2-24,83.0,73.9,69.0,74.0,70.7,68.0,99,91,72,29.98,29.89,9,2,14,0.01
2013-2-25,82.0,74.6,69.0,76.0,71.4,68.0,98,90,79,29.91,29.79,4,2,12,0.01
2013-2-26,80.0,74.1,70.0,74.0,70.9,65.0,95,90,80,29.89,29.74,8,4,20,0.06
2013-2-27,74.0,69.3,66.0,68.0,63.3,60.0,92,81,68,29.98,29.86,8,4,14,0.01
2013-2-28,71.0,65.5,61.0,61.0,57.9,56.0,88,77,60,30.02,29.93,9,3,17,0.00
2013-3-1,67.0,62.0,58.0,60.0,52.2,44.0,80,70,60,30.02,29.91,9,4,15,0.00
2013-3-2,61.0,57.0,53.0,48.0,45.4,43.0,79,65,58,30.05,29.98,12,5,21,0.01
2013-3-3,57.0,53.0,44.0,49.0,44.9,36.0,94,75,59,30.16,29.98,14,6,24,0.25
2013-3-4,63.0,53.9,45.0,50.0,43.4,38.0,86,69,46,30.23,30.13,8,4,16,0.01
2013-3-5,74.0,61.0,49.0,61.0,54.7,47.0,97,81,58,30.17,30.08,5,1,12,0.00
2013-3-6,69.0,62.9,57.0,64.0,54.0,46.0,92,74,57,30.13,30.00,16,8,26,0.00
2013-3-7,60.0,55.1,47.0,50.0,42.7,35.0,84,64,44,30.22,30.10,13,6,18,0.00
2013-3-8,72.0,59.6,48.0,55.0,48.9,43.0,89,70,39,30.22,30.12,8,4,13,0.00
2013-3-9,76.0,63.4,53.0,59.0,52.2,45.0,92,70,34,30.20,30.10,7,2,13,0.00
2013-3-10,79.0,67.4,60.0,62.0,57.1,54.0,88,71,46,30.15,30.03,9,3,15,0.00
2013-3-11,79.0,69.2,62.0,65.0,61.4,58.0,90,77,56,30.09,29.93,7,4,17,0.00
2013-3-12,73.0,67.2,61.0,68.0,63.5,54.0,93,88,79,30.03,29.88,10,5,20,0.00
2013-3-13,74.0,62.5,56.0,55.0,50.4,40.0,89,67,30,30.16,30.03,12,6,20,0.00
2013-3-14,69.0,59.9,54.0,52.0,43.4,30.0,80,57,24,30.24,30.14,13,6,22,0.00
2013-3-15,73.0,59.1,49.0,52.0,43.9,31.0,83,61,25,30.29,30.15,10,4,16,0.00
2013-3-16,75.0,63.3,53.0,58.0,52.3,44.0,95,70,34,30.19,30.08,5,2,12,0.00
2013-3-17,78.0,65.9,57.0,63.0,59.1,56.0,97,80,56,30.12,30.00,7,2,12,0.00
2013-3-18,75.0,68.1,63.0,69.0,64.9,61.0,96,90,77,30.04,29.91,9,3,14,1.24
2013-3-19,78.0,69.7,66.0,68.0,66.3,65.0,97,89,72,30.01,29.83,7,3,17,0.02
2013-3-20,75.0,67.5,64.0,66.0,63.9,63.0,97,89,70,30.01,29.81,13,3,26,0.12
2013-3-21,71.0,64.4,57.0,63.0,52.9,40.0,94,69,32,29.96,29.85,10,6,20,0.10
2013-3-22,78.0,66.1,55.0,70.0,58.1,43.0,95,76,61,29.98,29.88,7,2,13,0.01
2013-3-23,81.0,74.6,70.0,74.0,70.9,68.0,98,89,75,29.95,29.81,8,3,16,0.00
2013-3-24,82.0,75.2,71.0,74.0,71.8,68.0,96,89,78,29.85,29.69,9,4,20,0.00
2013-3-25,75.0,68.1,58.0,73.0,59.0,46.0,95,74,57,30.04,29.75,15,8,29,0.00
2013-3-26,61.0,56.8,51.0,49.0,43.8,39.0,74,62,50,30.24,30.03,17,8,31,0.00
2013-3-27,61.0,53.5,46.0,47.0,40.2,34.0,74,62,40,30.30,30.20,12,6,20,0.00
2013-3-28,70.0,57.1,46.0,52.0,43.7,35.0,85,64,30,30.29,30.18,10,5,17,0.00
2013-3-29,77.0,62.4,52.0,55.0,47.4,39.0,85,61,27,30.31,30.18,12,4,15,0.00
2013-3-30,77.0,66.2,56.0,58.0,54.5,49.0,91,68,44,30.25,30.13,6,2,12,0.00
2013-3-31,81.0,69.6,61.0,64.0,59.7,-99.9,91,75,53,30.18,30.02,6,3,15,0.00
2013-4-1,81.0,72.9,66.0,72.0,68.6,65.0,97,87,71,30.05,29.97,8,3,14,0.00
2013-4-2,79.0,72.1,67.0,69.0,67.0,65.0,98,85,65,30.09,29.99,9,4,13,0.00
2013-4-3,84.0,74.3,67.0,71.0,68.3,63.0,94,82,63,30.06,29.94,8,4,18,0.00
2013-4-4,78.0,71.7,66.0,73.0,68.9,64.0,96,91,83,30.02,29.86,12,4,24,0.55
2013-4-5,71.0,68.4,64.0,68.0,63.9,57.0,96,85,71,30.01,29.81,13,7,21,1.03
2013-4-6,72.0,65.3,59.0,63.0,58.6,55.0,92,80,62,30.08,29.96,12,6,18,0.01
2013-4-7,84.0,72.5,64.0,67.0,62.8,58.0,93,74,43,30.12,30.02,9,4,18,0.00
2013-4-8,86.0,74.7,66.0,67.0,64.0,61.0,87,71,45,30.11,30.02,7,3,15,0.00
2013-4-9,85.0,75.1,67.0,69.0,65.3,62.0,90,73,50,30.12,30.04,8,3,17,0.00
2013-4-10,88.0,76.9,69.0,73.0,69.4,66.0,91,79,58,30.09,29.95,8,4,14,0.00
2013-4-11,87.0,78.6,73.0,75.0,72.7,71.0,94,83,64,29.98,29.84,10,6,18,0.00
2013-4-12,86.0,78.6,75.0,77.0,74.4,73.0,95,88,72,29.93,29.85,6,4,16,0.00
2013-4-13,87.0,78.5,75.0,74.0,70.9,67.0,93,79,55,29.96,29.84,9,4,20,0.00
2013-4-14,88.0,79.2,73.0,77.0,72.9,69.0,93,82,60,29.96,29.84,7,4,18,0.00
2013-4-15,89.0,78.2,67.0,76.0,71.1,64.0,92,79,63,30.05,29.93,9,3,13,0.16
2013-4-16,92.0,80.5,72.0,74.0,71.8,69.0,94,76,53,30.11,30.00,11,4,21,0.11
2013-4-17,88.0,79.1,72.0,73.0,69.7,66.0,90,74,51,30.11,29.98,9,4,16,0.00
2013-4-18,90.0,80.1,74.0,75.0,70.6,65.0,86,74,54,30.04,29.93,9,4,17,0.00
2013-4-19,87.0,80.2,76.0,76.0,73.7,71.0,90,81,64,30.01,29.93,10,5,20,0.00
2013-4-20,86.0,79.2,73.0,76.0,72.7,70.0,95,82,62,30.10,29.95,10,4,16,0.06
2013-4-21,88.0,75.2,65.0,73.0,69.4,64.0,96,83,57,30.10,29.98,8,4,16,0.55
2013-4-22,84.0,75.3,69.0,74.0,69.0,67.0,96,82,61,30.07,29.93,11,3,17,0.83
2013-4-23,88.0,75.9,67.0,70.0,66.4,63.0,95,74,46,30.07,29.97,12,6,21,0.03
2013-4-24,85.0,75.4,67.0,69.0,66.1,64.0,91,74,52,30.12,30.04,9,4,18,0.00
2013-4-25,87.0,77.4,70.0,70.0,67.6,64.0,90,73,51,30.18,30.06,10,5,17,0.00
2013-4-26,87.0,77.6,68.0,66.0,64.1,63.0,87,65,46,30.22,30.11,9,4,17,0.00
2013-4-27,86.0,77.8,70.0,67.0,64.4,61.0,86,65,46,30.19,30.04,8,5,16,0.00
2013-4-28,89.0,77.8,69.0,71.0,65.5,-99.9,82,70,47,30.09,29.95,10,5,20,0.00
2013-4-29,89.0,77.9,70.0,74.0,68.4,64.0,84,73,56,30.01,29.92,12,4,18,0.00
2013-4-30,89.0,78.9,72.0,75.0,71.6,69.0,94,79,62,29.97,29.90,9,3,14,0.00
2013-5-1,78.0,73.9,69.0,74.0,70.7,67.0,95,90,82,29.99,29.81,16,4,26,0.56
2013-5-2,76.0,71.2,69.0,71.0,68.6,67.0,96,92,79,29.93,29.80,6,3,13,0.45
2013-5-3,83.0,74.8,68.0,73.0,69.3,66.0,96,84,67,29.84,29.71,12,4,20,0.01
2013-5-4,82.0,75.8,71.0,72.0,68.4,66.0,89,79,68,29.82,29.69,16,10,25,0.00
2013-5-5,78.0,72.3,69.0,68.0,60.3,55.0,89,67,49,29.96,29.78,14,10,24,0.00
2013-5-6,80.0,73.2,69.0,66.0,62.6,58.0,78,70,58,30.01,29.92,9,5,14,0.00
2013-5-7,81.0,73.5,66.0,63.0,61.3,59.0,81,66,53,30.06,29.98,10,6,18,0.00
2013-5-8,86.0,73.8,64.0,65.0,62.5,59.0,93,70,43,30.14,30.04,8,2,12,0.00
2013-5-9,88.0,74.8,65.0,67.0,62.9,56.0,90,69,34,30.14,30.06,6,2,9,0.00
2013-5-10,90.0,77.4,69.0,75.0,68.3,-99.9,93,78,57,30.12,30.00,7,2,12,0.00
2013-5-11,89.0,81.0,75.0,78.0,75.2,73.0,94,83,64,30.05,29.98,5,2,13,0.00
2013-5-12,89.0,80.5,76.0,77.0,73.7,-99.9,94,82,65,30.04,29.91,11,4,16,0.00
2013-5-13,85.0,78.1,72.0,74.0,69.1,56.0,91,75,56,30.11,29.99,12,5,20,0.00
2013-5-14,87.0,74.6,65.0,62.0,58.0,53.0,79,58,32,30.17,30.08,11,5,20,0.00
2013-5-15,88.0,77.0,69.0,65.0,61.1,59.0,75,59,43,30.17,30.05,6,4,14,0.00
2013-5-16,89.0,71.0,69.0,67.0,42.5,-99.9,81,64,38,30.10,29.98,8,4,15,0.00
2013-5-17,90.0,78.4,71.0,70.0,60.6,-99.9,86,68,46,30.07,30.00,9,4,15,0.00
2013-5-18,92.0,80.8,73.0,73.0,70.4,68.0,95,72,50,30.09,30.00,10,3,15,0.00
2013-5-19,91.0,81.1,76.0,73.0,71.4,68.0,91,74,52,30.09,29.97,7,2,13,0.00
2013-5-20,93.0,79.5,74.0,74.0,71.5,68.0,89,78,51,30.05,29.95,16,3,39,0.06
2013-5-21,92.0,79.1,71.0,75.0,70.7,68.0,93,77,49,30.00,29.89,9,4,18,0.04
2013-5-22,90.0,80.0,72.0,76.0,72.7,68.0,95,80,60,29.95,29.88,10,4,16,0.00
2013-5-23,89.0,80.7,75.0,73.0,72.1,70.0,90,76,58,30.02,29.90,12,5,15,0.00
2013-5-24,91.0,81.6,75.0,77.0,74.1,71.0,94,79,52,30.06,29.96,12,4,21,0.00
2013-5-25,92.0,81.8,73.0,75.0,69.3,65.0,90,68,43,30.13,30.02,10,4,21,0.00
2013-5-26,89.0,79.6,72.0,68.0,65.4,60.0,83,64,39,30.17,30.06,9,5,20,0.00
2013-5-27,88.0,77.0,71.0,74.0,68.5,64.0,93,76,56,30.15,30.01,11,4,23,1.11
2013-5-28,87.0,78.4,74.0,77.0,72.4,70.0,91,82,64,30.10,30.00,9,5,17,0.04
2013-5-29,83.0,77.3,74.0,74.0,72.0,69.0,93,84,69,30.06,29.98,12,6,23,0.01
2013-5-30,87.0,78.5,73.0,76.0,72.1,69.0,91,81,64,30.03,29.94,12,6,21,0.04
2013-5-31,87.0,78.2,74.0,76.0,73.3,71.0,96,85,66,30.03,29.97,9,4,22,0.64
2013-6-1,90.0,79.7,74.0,77.0,74.3,72.0,96,85,62,30.02,29.94,6,2,12,0.52
2013-6-2,89.0,80.5,74.0,78.0,74.0,-99.9,96,85,68,29.99,29.90,6,2,16,0.06
2013-6-3,84.0,79.1,75.0,78.0,74.6,73.0,92,86,77,29.99,29.90,7,2,16,0.14
2013-6-4,81.0,78.1,74.0,76.0,74.1,72.0,93,88,82,30.01,29.93,9,4,21,0.06
2013-6-5,79.0,77.6,76.0,76.0,74.9,73.0,96,92,86,29.99,29.84,9,6,18,0.34
2013-6-6,80.0,76.8,72.0,78.0,74.5,70.0,97,93,83,29.85,29.74,13,6,25,2.03
2013-6-7,84.0,78.1,76.0,76.0,74.3,72.0,97,89,69,29.96,29.80,6,2,13,0.01
2013-6-8,89.0,82.3,77.0,81.0,77.1,73.0,93,85,74,30.08,29.94,5,2,14,0.00
2013-6-9,92.0,82.9,77.0,77.0,75.7,74.0,94,80,60,30.08,29.98,9,3,16,0.01
2013-6-10,93.0,83.5,77.0,78.0,75.9,74.0,94,79,55,30.06,29.98,7,3,13,0.01
2013-6-11,95.0,83.1,77.0,79.0,75.5,70.0,93,79,55,30.07,29.97,13,3,22,0.03
2013-6-12,93.0,78.7,72.0,80.0,74.6,70.0,94,88,65,30.10,29.99,13,2,25,1.49
2013-6-13,91.0,81.2,73.0,78.0,74.6,72.0,97,81,62,30.04,29.92,8,3,14,0.01
2013-6-14,89.0,82.8,78.0,77.0,75.1,74.0,88,78,63,29.96,29.88,9,4,15,0.00
2013-6-15,91.0,84.2,79.0,77.0,75.1,73.0,89,75,62,30.03,29.92,10,4,14,0.00
2013-6-16,95.0,86.2,78.0,77.0,75.5,74.0,91,72,52,30.07,30.00,8,3,14,0.00
2013-6-17,99.0,85.5,79.0,79.0,75.4,73.0,92,73,44,30.06,29.98,5,2,12,0.00
2013-6-18,94.0,86.1,81.0,79.0,77.4,75.0,89,76,56,30.05,29.96,6,2,13,0.00
2013-6-19,96.0,84.3,75.0,79.0,75.6,72.0,93,77,53,30.03,29.96,10,3,24,0.99
2013-6-20,91.0,82.2,76.0,80.0,75.8,73.0,93,82,60,30.07,30.01,4,2,12,1.00
2013-6-22,93.0,85.6,74.0,77.0,73.7,70.0,93,69,49,30.10,30.00,12,3,21,1.31
2013-6-23,96.0,81.5,77.0,78.0,74.9,70.0,93,82,50,30.11,30.03,8,2,16,1.34
2013-6-24,96.0,81.8,77.0,77.0,74.9,73.0,94,81,51,30.14,30.04,7,3,12,0.68
2013-6-25,94.0,81.9,77.0,78.0,75.0,73.0,95,81,55,30.12,30.00,9,3,26,0.09
2013-6-26,92.0,81.3,77.0,79.0,74.8,72.0,92,81,61,30.06,29.99,9,3,15,0.09
2013-6-27,93.0,82.3,75.0,78.0,74.5,72.0,94,78,56,30.03,29.93,7,2,16,0.00
2013-6-28,93.0,85.4,78.0,77.0,75.4,72.0,89,73,56,29.97,29.86,8,2,13,0.00
2013-6-29,93.0,85.6,80.0,78.0,75.9,74.0,87,73,56,29.90,29.83,8,3,16,0.01
2013-6-30,91.0,84.3,79.0,79.0,76.7,74.0,89,78,65,29.88,29.82,10,5,21,0.07
2013-7-1,86.0,79.4,75.0,79.0,75.1,73.0,95,87,74,29.98,29.87,12,4,25,2.12
2013-7-2,87.0,79.1,73.0,79.0,74.9,71.0,96,87,74,30.07,29.94,8,2,22,0.42
2013-7-3,89.0,78.1,75.0,79.0,74.5,72.0,94,89,72,30.09,30.02,7,3,16,0.38
2013-7-4,90.0,79.4,74.0,79.0,74.4,71.0,95,85,67,30.12,30.03,6,3,22,0.50
2013-7-5,90.0,79.2,74.0,78.0,74.4,72.0,96,86,68,30.12,30.02,10,3,26,0.85
2013-7-6,93.0,81.7,76.0,78.0,75.7,73.0,95,83,56,30.09,29.99,7,2,13,0.42
2013-7-7,94.0,83.3,77.0,77.0,75.5,73.0,93,79,53,30.09,29.99,9,3,17,0.07
2013-7-8,92.0,80.3,77.0,77.0,72.9,-99.9,90,82,54,30.13,30.05,10,3,24,0.34
2013-7-9,89.0,79.1,75.0,77.0,74.5,72.0,95,87,62,30.13,30.03,12,1,22,0.19
2013-7-10,87.0,78.9,75.0,76.0,71.3,-99.9,95,81,66,30.07,29.97,7,1,13,0.03
2013-7-11,88.0,81.7,76.0,78.0,74.8,72.0,94,80,63,30.02,29.92,6,2,14,0.15
2013-7-12,91.0,82.2,77.0,78.0,75.0,73.0,94,80,61,29.96,29.89,6,1,10,0.09
2013-7-13,92.0,82.4,76.0,79.0,75.3,72.0,92,80,62,29.97,29.89,6,3,18,0.05
2013-7-14,80.0,77.8,75.0,75.0,74.0,72.0,92,88,85,30.06,29.93,7,3,17,2.16
2013-7-15,89.0,78.3,75.0,77.0,72.9,71.0,90,84,67,30.07,29.99,5,2,12,0.25
2013-7-16,87.0,79.1,76.0,75.0,73.1,71.0,89,82,66,30.11,30.02,14,5,26,0.02
2013-7-17,85.0,78.9,74.0,75.0,73.0,69.0,91,83,69,30.11,30.01,11,4,22,0.10
2013-7-18,80.0,75.9,73.0,75.0,72.6,70.0,92,90,85,30.11,30.03,5,2,13,0.84
2013-7-19,89.0,79.0,72.0,79.0,74.1,70.0,92,85,68,30.11,30.02,5,2,12,0.01
2013-7-20,93.0,82.2,76.0,81.0,76.2,73.0,94,83,62,30.10,30.01,7,2,13,0.00
2013-7-21,91.0,83.6,78.0,81.0,78.2,75.0,95,85,67,30.12,30.03,5,1,9,0.09
2013-7-22,92.0,83.1,78.0,79.0,76.8,75.0,94,82,60,30.13,30.06,5,2,12,0.01
2013-7-23,93.0,83.5,78.0,78.0,76.4,74.0,95,81,60,30.10,29.98,8,2,13,0.00
2013-7-24,92.0,84.9,79.0,76.0,74.3,73.0,83,71,55,30.02,29.93,10,5,16,0.00
2013-7-25,91.0,84.4,81.0,78.0,75.4,73.0,81,75,67,30.02,29.91,10,6,16,0.00
2013-7-26,92.0,84.7,78.0,79.0,76.7,74.0,92,78,64,30.01,29.95,12,6,29,0.30
2013-7-27,93.0,86.2,80.0,79.0,77.0,75.0,91,74,61,29.99,29.92,11,5,15,0.21
2013-7-28,94.0,84.9,77.0,77.0,74.6,72.0,91,73,52,30.04,29.93,7,2,12,0.00
2013-7-29,96.0,82.2,75.0,79.0,75.6,73.0,96,82,54,30.12,30.01,9,2,20,1.18
2013-7-30,92.0,80.2,75.0,80.0,76.5,73.0,96,89,65,30.15,30.06,9,1,21,2.09
2013-7-31,93.0,81.7,78.0,79.0,76.6,75.0,95,86,62,30.11,29.99,3,1,9,0.19
2013-8-1,94.0,84.1,78.0,78.0,75.0,71.0,93,76,55,30.03,29.92,7,2,12,0.00
2013-8-2,93.0,83.4,77.0,79.0,76.0,74.0,93,79,62,30.03,29.93,7,1,12,0.00
2013-8-3,94.0,84.3,79.0,79.0,77.1,74.0,93,80,60,30.10,30.00,5,1,12,0.00
2013-8-4,95.0,85.1,80.0,79.0,77.5,76.0,92,79,58,30.09,30.00,10,3,15,0.00
2013-8-5,95.0,85.9,82.0,80.0,77.6,75.0,87,77,59,30.04,29.93,9,4,15,0.04
2013-8-6,93.0,85.3,80.0,79.0,77.4,75.0,92,78,60,29.97,29.88,7,2,17,0.01
2013-8-7,95.0,83.9,78.0,79.0,76.5,74.0,91,80,57,29.95,29.88,6,2,14,0.00
2013-8-8,96.0,82.6,75.0,79.0,76.4,73.0,94,83,54,29.99,29.90,9,3,20,1.17
2013-8-9,92.0,80.3,74.0,79.0,75.5,72.0,95,87,61,30.04,29.93,10,3,25,1.74
2013-8-10,96.0,85.2,77.0,80.0,76.2,73.0,92,76,53,30.09,30.00,6,3,13,0.03
2013-8-11,98.0,84.9,79.0,79.0,77.1,75.0,92,79,49,30.11,30.02,6,3,13,0.00
2013-8-12,95.0,84.7,78.0,77.0,74.3,68.0,92,73,44,30.12,29.98,6,3,14,0.00
2013-8-13,95.0,83.0,79.0,79.0,72.7,-99.9,91,75,56,30.04,29.93,7,3,13,0.03
2013-8-14,94.0,83.4,79.0,78.0,71.9,-99.9,89,73,49,30.01,29.91,4,1,12,0.03
2013-8-15,85.0,72.0,75.0,80.0,54.9,-99.9,95,80,76,30.04,29.94,4,1,12,0.55
2013-8-16,95.0,81.6,78.0,80.0,70.6,-99.9,95,77,59,30.03,29.94,5,1,12,0.01
2013-8-21,92.0,82.9,79.0,80.0,76.8,75.0,93,83,61,30.05,29.96,8,4,15,0.06
2013-8-22,95.0,82.5,76.0,79.0,76.3,72.0,93,83,55,30.03,29.93,7,3,18,0.06
2013-8-23,95.0,82.2,77.0,79.0,76.7,75.0,96,85,58,29.99,29.92,6,2,14,0.33
2013-8-24,95.0,82.5,77.0,80.0,76.6,74.0,97,84,57,30.11,29.96,7,2,15,0.35
2013-8-25,89.0,77.6,76.0,79.0,72.5,-99.9,95,88,69,30.12,30.01,6,3,16,0.72
2013-8-26,92.0,80.1,75.0,79.0,75.6,73.0,96,88,61,30.11,29.98,6,2,12,0.31
2013-8-27,89.0,77.4,74.0,77.0,73.8,72.0,96,90,68,30.04,29.97,7,2,21,0.26
2013-9-1,93.0,81.0,77.0,80.0,73.4,-99.9,95,82,62,29.98,29.91,7,1,20,0.20
2013-9-2,90.0,80.4,78.0,80.0,76.4,74.0,95,88,69,30.01,29.92,7,1,13,0.40
2013-9-3,92.0,82.3,77.0,78.0,75.7,71.0,94,82,60,30.02,29.91,6,1,13,0.01
2013-9-4,94.0,81.2,74.0,79.0,76.2,71.0,93,86,61,30.05,29.94,9,2,26,0.31
2013-9-5,94.0,83.2,77.0,81.0,77.2,74.0,96,83,59,30.06,29.97,6,2,12,0.18
2013-9-6,95.0,83.8,74.0,80.0,76.8,71.0,95,81,57,30.03,29.90,14,4,26,0.22
2013-9-7,92.0,79.6,74.0,79.0,75.0,73.0,97,87,62,29.98,29.89,9,3,24,1.40
2013-9-8,91.0,77.6,74.0,77.0,71.0,-99.9,97,84,57,29.94,29.85,8,2,15,0.04
2013-9-9,93.0,82.3,76.0,77.0,75.1,73.0,95,81,57,29.98,29.89,5,2,15,0.03
2013-9-11,89.0,80.2,76.0,78.0,75.5,74.0,94,86,65,30.02,29.96,8,3,17,0.13
2013-9-12,90.0,81.3,76.0,78.0,75.6,73.0,94,84,62,30.00,29.86,5,2,12,0.03
2013-9-13,91.0,81.7,75.0,77.0,74.3,71.0,96,80,52,29.89,29.80,7,2,10,0.01
2013-9-14,93.0,83.8,77.0,78.0,75.5,72.0,95,78,55,29.94,29.82,7,2,10,0.01
2013-9-15,83.0,77.8,76.0,78.0,71.3,-99.9,93,85,78,30.05,29.91,7,2,23,0.17
2013-9-16,87.0,78.2,76.0,79.0,74.8,73.0,95,90,69,30.02,29.94,7,4,21,0.09
2013-9-17,86.0,76.9,74.0,78.0,74.6,73.0,97,93,75,30.01,29.90,12,3,23,1.19
2013-9-18,76.0,74.8,74.0,75.0,73.7,73.0,97,96,95,29.97,29.92,3,2,9,1.19
2013-9-19,91.0,79.0,74.0,78.0,75.0,73.0,97,88,64,30.01,29.93,7,2,12,0.36
2013-9-20,89.0,81.0,75.0,74.0,72.5,70.0,95,77,57,30.00,29.87,6,3,15,0.06
2013-9-21,90.0,81.1,75.0,75.0,72.8,70.0,90,77,58,29.92,29.77,5,2,9,0.00
2013-10-2,89.0,80.3,77.0,77.0,74.0,72.0,92,82,62,30.01,29.92,9,4,15,0.20
2013-10-3,89.0,79.7,75.0,78.0,74.5,72.0,97,85,63,30.03,29.93,9,2,14,0.80
2013-10-4,88.0,81.0,75.0,77.0,73.4,69.0,96,79,60,30.05,29.96,5,2,12,0.01
2013-10-5,87.0,80.4,76.0,75.0,72.6,70.0,88,78,61,30.03,29.91,6,2,10,0.01
2013-10-6,89.0,81.2,74.0,76.0,73.7,72.0,93,79,58,29.96,29.86,7,2,10,0.00
2013-10-7,87.0,81.6,76.0,79.0,75.8,74.0,92,83,73,29.88,29.79,15,4,25,0.08
2013-10-8,88.0,81.5,77.0,74.0,72.5,69.0,91,75,62,29.92,29.83,11,5,15,0.44
2013-10-9,84.0,77.6,74.0,75.0,72.3,70.0,96,85,69,30.00,29.91,6,3,13,0.26
2013-10-10,86.0,77.2,70.0,74.0,70.4,68.0,94,81,58,30.03,29.93,7,3,15,0.00
2013-10-16,88.0,77.3,71.0,74.0,71.0,69.0,96,82,56,29.95,29.88,8,3,12,0.00
2013-10-17,89.0,78.9,72.0,74.0,70.9,67.0,96,78,50,29.96,29.88,6,2,9,0.00
2013-10-18,90.0,80.1,73.0,75.0,72.5,69.0,95,79,53,29.97,29.88,7,1,10,0.00
2013-10-19,89.0,81.8,76.0,78.0,75.5,73.0,95,82,66,29.94,29.85,5,2,10,0.09
2013-10-20,90.0,80.4,76.0,77.0,72.6,-99.9,97,81,60,29.94,29.85,6,1,10,0.01
2013-10-21,90.0,80.8,75.0,78.0,75.0,73.0,96,83,64,29.98,29.90,2,0,9,0.00
2013-10-22,89.0,81.3,75.0,79.0,76.1,73.0,95,85,70,29.95,29.82,3,0,13,0.02
2013-10-23,82.0,80.8,78.0,75.0,71.5,67.0,89,74,61,29.89,29.85,7,4,13,0.03
2013-10-24,75.0,71.6,68.0,63.0,62.3,61.0,81,73,65,30.13,30.05,3,1,0,0.00
2013-10-25,79.0,73.2,64.0,64.0,61.9,60.0,86,69,54,30.20,30.11,4,1,0,0.00
2013-10-26,82.0,71.7,64.0,65.0,61.3,55.0,87,71,42,30.18,30.06,7,2,14,0.00
2013-10-27,81.0,70.4,63.0,65.0,59.2,-99.9,90,71,48,30.11,30.03,6,3,11,0.00
2013-10-28,84.0,72.5,65.0,67.0,62.6,-99.9,92,75,48,30.16,30.07,6,2,0,0.00
2013-10-29,85.0,75.8,67.0,69.0,66.7,64.0,90,74,55,30.20,30.08,8,4,0,0.00
2013-10-30,85.0,75.6,69.0,70.0,66.8,64.0,93,76,50,30.19,30.05,7,3,0,0.00
2013-11-12,84.0,75.0,69.0,71.0,68.4,67.0,94,81,58,30.10,29.98,7,3,0,0.00
2013-11-13,73.0,67.7,62.0,69.0,59.4,52.0,90,75,67,30.23,30.03,11,8,0,0.00
2013-11-14,77.0,68.1,61.0,62.0,57.7,52.0,81,70,53,30.24,30.12,8,5,0,0.00
2013-11-15,81.0,73.0,67.0,69.0,64.9,59.0,81,76,67,30.15,30.00,6,4,0,0.00
2013-11-16,79.0,72.3,70.0,72.0,65.8,-99.9,95,84,72,30.08,30.00,6,4,0,0.00
2013-11-17,84.0,75.5,70.0,73.0,70.3,67.0,95,85,68,30.06,29.98,4,2,0,0.00
2013-11-18,84.0,75.1,69.0,74.0,71.0,68.0,97,88,68,30.03,29.93,6,2,0,0.00